sensor_id;sensor_type;location;lat;lon;timestamp;pressure;altitude;pressure_sealevel;temperature;humidity
43503;BME280;29098;48.184;16.298;2023-03-21T00:01:56;99518.59;;;10.52;81.28
43503;BME280;29098;48.184;16.298;2023-03-21T00:04:24;99516.81;;;10.44;81.96
43503;BME280;29098;48.184;16.298;2023-03-21T00:06:50;99487.75;;;10.29;82.06
43503;BME280;29098;48.184;16.298;2023-03-21T00:09:16;99469.59;;;10.11;82.50
43503;BME280;29098;48.184;16.298;2023-03-21T00:11:42;99503.03;;;10.34;81.96
43503;BME280;29098;48.184;16.298;2023-03-21T00:14:08;99482.88;;;10.18;82.36
43503;BME280;29098;48.184;16.298;2023-03-21T00:16:38;99504.13;;;10.16;82.56
43503;BME280;29098;48.184;16.298;2023-03-21T00:19:04;99502.00;;;10.11;83.19
43503;BME280;29098;48.184;16.298;2023-03-21T00:21:30;99490.59;;;9.96;83.24
43503;BME280;29098;48.184;16.298;2023-03-21T00:23:58;99495.47;;;10.07;83.14
43503;BME280;29098;48.184;16.298;2023-03-21T00:26:24;99508.91;;;10.21;83.28
43503;BME280;29098;48.184;16.298;2023-03-21T00:28:51;99482.88;;;10.18;83.06
43503;BME280;29098;48.184;16.298;2023-03-21T00:31:17;99494.34;;;10.25;83.21
43503;BME280;29098;48.184;16.298;2023-03-21T00:33:46;99477.75;;;10.24;83.28
43503;BME280;29098;48.184;16.298;2023-03-21T00:36:11;99509.91;;;10.43;82.86
43503;BME280;29098;48.184;16.298;2023-03-21T00:38:38;99471.22;;;10.35;82.90
43503;BME280;29098;48.184;16.298;2023-03-21T00:41:08;99494.78;;;10.60;82.64
43503;BME280;29098;48.184;16.298;2023-03-21T00:43:35;99484.25;;;10.60;82.51
43503;BME280;29098;48.184;16.298;2023-03-21T00:46:01;99479.78;;;10.61;81.82
43503;BME280;29098;48.184;16.298;2023-03-21T00:48:27;99507.28;;;10.81;81.35
43503;BME280;29098;48.184;16.298;2023-03-21T00:50:54;99497.03;;;10.87;81.37
43503;BME280;29098;48.184;16.298;2023-03-21T00:53:21;99494.63;;;10.77;81.54
43503;BME280;29098;48.184;16.298;2023-03-21T00:55:48;99482.78;;;10.73;81.24
43503;BME280;29098;48.184;16.298;2023-03-21T00:58:14;99495.44;;;10.77;81.19
43503;BME280;29098;48.184;16.298;2023-03-21T01:00:40;99484.78;;;10.71;81.44
43503;BME280;29098;48.184;16.298;2023-03-21T01:03:09;99481.34;;;10.70;81.91
43503;BME280;29098;48.184;16.298;2023-03-21T01:05:44;99493.47;;;10.79;81.18
43503;BME280;29098;48.184;16.298;2023-03-21T01:08:36;99470.53;;;10.65;81.38
43503;BME280;29098;48.184;16.298;2023-03-21T01:11:07;99486.09;;;10.75;80.77
43503;BME280;29098;48.184;16.298;2023-03-21T01:13:33;99499.38;;;10.96;80.36
43503;BME280;29098;48.184;16.298;2023-03-21T01:15:59;99496.81;;;10.88;80.78
43503;BME280;29098;48.184;16.298;2023-03-21T01:18:28;99497.66;;;10.89;80.89
43503;BME280;29098;48.184;16.298;2023-03-21T01:20:57;99480.75;;;10.83;81.63
43503;BME280;29098;48.184;16.298;2023-03-21T01:23:23;99506.66;;;10.94;80.99
43503;BME280;29098;48.184;16.298;2023-03-21T01:25:50;99499.91;;;10.77;81.55
43503;BME280;29098;48.184;16.298;2023-03-21T01:28:16;99485.72;;;10.78;80.89
43503;BME280;29098;48.184;16.298;2023-03-21T01:30:46;99479.38;;;10.87;80.56
43503;BME280;29098;48.184;16.298;2023-03-21T01:33:13;99490.75;;;10.88;80.26
43503;BME280;29098;48.184;16.298;2023-03-21T01:35:38;99502.00;;;10.96;80.66
43503;BME280;29098;48.184;16.298;2023-03-21T01:38:04;99468.53;;;10.82;80.37
43503;BME280;29098;48.184;16.298;2023-03-21T01:40:30;99482.13;;;10.94;79.98
43503;BME280;29098;48.184;16.298;2023-03-21T01:42:55;99498.19;;;10.99;79.58
43503;BME280;29098;48.184;16.298;2023-03-21T01:48:49;99485.81;;;10.85;79.82
43503;BME280;29098;48.184;16.298;2023-03-21T01:51:16;99460.34;;;10.77;79.58
43503;BME280;29098;48.184;16.298;2023-03-21T01:53:44;99463.28;;;10.97;78.29
43503;BME280;29098;48.184;16.298;2023-03-21T01:58:44;99464.75;;;11.00;77.89
43503;BME280;29098;48.184;16.298;2023-03-21T02:01:10;99472.28;;;11.03;77.28
43503;BME280;29098;48.184;16.298;2023-03-21T02:03:38;99464.75;;;11.00;76.73
43503;BME280;29098;48.184;16.298;2023-03-21T02:08:50;99469.66;;;11.03;76.35
43503;BME280;29098;48.184;16.298;2023-03-21T02:11:17;99471.56;;;11.09;76.34
43503;BME280;29098;48.184;16.298;2023-03-21T02:13:43;99477.13;;;11.14;76.42
43503;BME280;29098;48.184;16.298;2023-03-21T02:16:27;99484.75;;;11.09;76.14
43503;BME280;29098;48.184;16.298;2023-03-21T02:22:30;99483.75;;;11.10;76.69
43503;BME280;29098;48.184;16.298;2023-03-21T02:27:47;99450.38;;;11.02;75.41
43503;BME280;29098;48.184;16.298;2023-03-21T02:36:04;99462.81;;;11.23;74.29
43503;BME280;29098;48.184;16.298;2023-03-21T02:41:40;99457.19;;;11.12;75.10
43503;BME280;29098;48.184;16.298;2023-03-21T02:44:18;99468.38;;;11.14;74.53
43503;BME280;29098;48.184;16.298;2023-03-21T02:47:04;99445.44;;;10.99;75.05
43503;BME280;29098;48.184;16.298;2023-03-21T02:49:41;99441.25;;;10.90;74.72
43503;BME280;29098;48.184;16.298;2023-03-21T02:52:13;99436.53;;;11.00;74.48
43503;BME280;29098;48.184;16.298;2023-03-21T02:54:42;99459.91;;;11.03;74.55
43503;BME280;29098;48.184;16.298;2023-03-21T02:57:08;99435.72;;;11.00;74.65
43503;BME280;29098;48.184;16.298;2023-03-21T02:59:34;99437.44;;;10.92;74.48
43503;BME280;29098;48.184;16.298;2023-03-21T03:02:02;99430.88;;;10.88;74.74
43503;BME280;29098;48.184;16.298;2023-03-21T03:04:28;99444.44;;;10.85;75.68
43503;BME280;29098;48.184;16.298;2023-03-21T03:12:37;99427.31;;;10.51;78.03
43503;BME280;29098;48.184;16.298;2023-03-21T03:17:51;99445.97;;;10.64;76.79
43503;BME280;29098;48.184;16.298;2023-03-21T03:20:32;99451.88;;;10.66;76.65
43503;BME280;29098;48.184;16.298;2023-03-21T03:23:33;99430.94;;;10.50;76.89
43503;BME280;29098;48.184;16.298;2023-03-21T03:26:06;99445.56;;;10.52;76.96
43503;BME280;29098;48.184;16.298;2023-03-21T03:28:39;99463.78;;;10.62;77.13
43503;BME280;29098;48.184;16.298;2023-03-21T03:31:07;99437.13;;;10.57;76.79
43503;BME280;29098;48.184;16.298;2023-03-21T03:33:41;99455.63;;;10.72;76.58
43503;BME280;29098;48.184;16.298;2023-03-21T03:36:12;99440.13;;;10.54;77.45
43503;BME280;29098;48.184;16.298;2023-03-21T03:38:41;99433.88;;;10.55;77.15
43503;BME280;29098;48.184;16.298;2023-03-21T03:41:18;99450.78;;;10.61;77.07
43503;BME280;29098;48.184;16.298;2023-03-21T03:43:52;99461.31;;;10.61;77.39
43503;BME280;29098;48.184;16.298;2023-03-21T03:46:46;99450.59;;;10.62;77.47
43503;BME280;29098;48.184;16.298;2023-03-21T03:49:20;99458.06;;;10.59;77.36
43503;BME280;29098;48.184;16.298;2023-03-21T03:54:25;99454.03;;;10.48;77.94
43503;BME280;29098;48.184;16.298;2023-03-21T03:56:53;99446.75;;;10.50;78.49
43503;BME280;29098;48.184;16.298;2023-03-21T03:59:18;99423.06;;;10.26;78.95
43503;BME280;29098;48.184;16.298;2023-03-21T04:01:47;99425.56;;;10.20;79.39
43503;BME280;29098;48.184;16.298;2023-03-21T04:04:13;99463.31;;;10.35;79.67
43503;BME280;29098;48.184;16.298;2023-03-21T04:06:42;99436.81;;;10.13;80.02
43503;BME280;29098;48.184;16.298;2023-03-21T04:09:10;99428.84;;;9.98;80.92
43503;BME280;29098;48.184;16.298;2023-03-21T04:11:36;99458.13;;;10.04;81.36
43503;BME280;29098;48.184;16.298;2023-03-21T04:14:02;99419.13;;;9.76;82.08
43503;BME280;29098;48.184;16.298;2023-03-21T04:16:27;99458.72;;;9.91;81.79
43503;BME280;29098;48.184;16.298;2023-03-21T04:18:55;99408.44;;;9.45;83.27
43503;BME280;29098;48.184;16.298;2023-03-21T04:21:20;99459.16;;;9.71;82.52
43503;BME280;29098;48.184;16.298;2023-03-21T04:23:46;99448.75;;;9.46;83.93
43503;BME280;29098;48.184;16.298;2023-03-21T04:26:11;99453.69;;;9.41;84.33
43503;BME280;29098;48.184;16.298;2023-03-21T04:28:37;99443.16;;;9.41;84.00
43503;BME280;29098;48.184;16.298;2023-03-21T04:31:05;99444.03;;;9.33;84.54
43503;BME280;29098;48.184;16.298;2023-03-21T04:33:31;99429.13;;;9.17;84.91
43503;BME280;29098;48.184;16.298;2023-03-21T04:36:03;99449.38;;;9.08;85.14
43503;BME280;29098;48.184;16.298;2023-03-21T04:38:31;99474.34;;;9.12;86.20
43503;BME280;29098;48.184;16.298;2023-03-21T04:40:58;99434.63;;;8.90;86.12
43503;BME280;29098;48.184;16.298;2023-03-21T04:43:24;99457.16;;;8.93;87.08
43503;BME280;29098;48.184;16.298;2023-03-21T04:45:50;99471.94;;;8.94;87.01
43503;BME280;29098;48.184;16.298;2023-03-21T04:48:16;99477.22;;;8.86;87.45
43503;BME280;29098;48.184;16.298;2023-03-21T04:50:44;99448.78;;;8.81;86.72
43503;BME280;29098;48.184;16.298;2023-03-21T04:53:11;99439.31;;;8.63;87.48
43503;BME280;29098;48.184;16.298;2023-03-21T04:55:37;99439.13;;;8.57;88.29
43503;BME280;29098;48.184;16.298;2023-03-21T04:58:03;99481.66;;;8.69;88.12
43503;BME280;29098;48.184;16.298;2023-03-21T05:00:29;99455.53;;;8.42;88.97
43503;BME280;29098;48.184;16.298;2023-03-21T05:02:56;99446.34;;;8.46;88.87
43503;BME280;29098;48.184;16.298;2023-03-21T05:05:23;99438.13;;;8.33;89.24
43503;BME280;29098;48.184;16.298;2023-03-21T05:07:49;99450.97;;;8.44;88.72
43503;BME280;29098;48.184;16.298;2023-03-21T05:10:15;99447.66;;;8.42;88.65
43503;BME280;29098;48.184;16.298;2023-03-21T05:12:41;99458.00;;;8.60;88.69
43503;BME280;29098;48.184;16.298;2023-03-21T05:15:07;99494.31;;;8.57;88.90
43503;BME280;29098;48.184;16.298;2023-03-21T05:17:35;99504.47;;;8.43;89.77
43503;BME280;29098;48.184;16.298;2023-03-21T05:20:01;99488.88;;;8.33;90.53
43503;BME280;29098;48.184;16.298;2023-03-21T05:22:28;99441.41;;;8.10;90.46
43503;BME280;29098;48.184;16.298;2023-03-21T05:24:54;99477.38;;;8.26;90.51
43503;BME280;29098;48.184;16.298;2023-03-21T05:27:21;99462.44;;;8.35;90.64
43503;BME280;29098;48.184;16.298;2023-03-21T05:30:08;99479.00;;;8.19;91.30
43503;BME280;29098;48.184;16.298;2023-03-21T05:32:34;99470.28;;;8.10;91.61
43503;BME280;29098;48.184;16.298;2023-03-21T05:35:00;99447.66;;;8.17;91.12
43503;BME280;29098;48.184;16.298;2023-03-21T05:37:26;99480.81;;;8.43;90.62
43503;BME280;29098;48.184;16.298;2023-03-21T05:39:52;99487.41;;;8.56;90.74
43503;BME280;29098;48.184;16.298;2023-03-21T05:42:18;99490.38;;;8.53;91.17
43503;BME280;29098;48.184;16.298;2023-03-21T05:44:44;99469.66;;;8.33;91.48
43503;BME280;29098;48.184;16.298;2023-03-21T05:47:11;99490.53;;;8.59;91.07
43503;BME280;29098;48.184;16.298;2023-03-21T05:49:37;99492.38;;;8.59;91.13
43503;BME280;29098;48.184;16.298;2023-03-21T05:52:03;99487.91;;;8.51;91.07
43503;BME280;29098;48.184;16.298;2023-03-21T05:54:29;99490.72;;;8.74;90.85
43503;BME280;29098;48.184;16.298;2023-03-21T05:56:54;99488.09;;;8.74;90.66
43503;BME280;29098;48.184;16.298;2023-03-21T05:59:20;99474.13;;;8.66;90.94
43503;BME280;29098;48.184;16.298;2023-03-21T06:01:45;99459.16;;;8.66;90.41
43503;BME280;29098;48.184;16.298;2023-03-21T06:04:11;99493.31;;;8.91;90.47
43503;BME280;29098;48.184;16.298;2023-03-21T06:06:36;99473.53;;;9.03;89.60
43503;BME280;29098;48.184;16.298;2023-03-21T06:09:02;99469.75;;;9.14;88.20
43503;BME280;29098;48.184;16.298;2023-03-21T06:11:30;99456.44;;;9.16;87.25
43503;BME280;29098;48.184;16.298;2023-03-21T06:13:56;99477.53;;;9.48;87.19
43503;BME280;29098;48.184;16.298;2023-03-21T06:16:22;99478.97;;;9.50;85.64
43503;BME280;29098;48.184;16.298;2023-03-21T06:18:47;99485.47;;;9.71;85.31
43503;BME280;29098;48.184;16.298;2023-03-21T06:21:13;99481.50;;;9.75;84.46
43503;BME280;29098;48.184;16.298;2023-03-21T06:23:39;99494.84;;;9.97;83.52
43503;BME280;29098;48.184;16.298;2023-03-21T06:26:04;99473.56;;;9.83;82.97
43503;BME280;29098;48.184;16.298;2023-03-21T06:28:30;99493.53;;;10.01;82.74
43503;BME280;29098;48.184;16.298;2023-03-21T06:30:56;99479.66;;;10.07;82.27
43503;BME280;29098;48.184;16.298;2023-03-21T06:33:21;99496.47;;;10.06;81.99
43503;BME280;29098;48.184;16.298;2023-03-21T06:35:54;99499.38;;;10.11;81.25
43503;BME280;29098;48.184;16.298;2023-03-21T06:38:20;99489.16;;;10.17;81.12
43503;BME280;29098;48.184;16.298;2023-03-21T06:40:46;99515.13;;;10.20;81.72
43503;BME280;29098;48.184;16.298;2023-03-21T06:43:13;99487.16;;;10.19;81.06
43503;BME280;29098;48.184;16.298;2023-03-21T06:45:38;99471.72;;;10.16;80.94
43503;BME280;29098;48.184;16.298;2023-03-21T06:48:04;99506.59;;;10.41;80.59
43503;BME280;29098;48.184;16.298;2023-03-21T06:50:30;99482.03;;;10.25;79.51
43503;BME280;29098;48.184;16.298;2023-03-21T06:52:55;99516.44;;;10.47;79.92
43503;BME280;29098;48.184;16.298;2023-03-21T06:55:23;99503.50;;;10.37;79.25
43503;BME280;29098;48.184;16.298;2023-03-21T06:58:00;99474.16;;;10.40;78.88
43503;BME280;29098;48.184;16.298;2023-03-21T07:00:25;99505.44;;;10.67;78.42
43503;BME280;29098;48.184;16.298;2023-03-21T07:02:51;99513.84;;;11.01;77.22
43503;BME280;29098;48.184;16.298;2023-03-21T07:05:18;99499.75;;;10.93;76.47
43503;BME280;29098;48.184;16.298;2023-03-21T07:07:43;99495.19;;;10.87;76.63
43503;BME280;29098;48.184;16.298;2023-03-21T07:10:09;99483.63;;;10.88;76.29
43503;BME280;29098;48.184;16.298;2023-03-21T07:12:35;99487.91;;;10.89;76.36
43503;BME280;29098;48.184;16.298;2023-03-21T07:15:01;99479.94;;;11.13;74.71
43503;BME280;29098;48.184;16.298;2023-03-21T07:17:28;99479.47;;;11.09;74.76
43503;BME280;29098;48.184;16.298;2023-03-21T07:19:54;99514.44;;;11.26;74.21
43503;BME280;29098;48.184;16.298;2023-03-21T07:22:20;99478.94;;;11.29;72.52
43503;BME280;29098;48.184;16.298;2023-03-21T07:24:45;99484.66;;;11.47;70.56
43503;BME280;29098;48.184;16.298;2023-03-21T07:27:18;99493.91;;;11.43;69.71
43503;BME280;29098;48.184;16.298;2023-03-21T07:29:43;99523.59;;;11.75;68.32
43503;BME280;29098;48.184;16.298;2023-03-21T07:32:11;99468.06;;;11.54;67.80
43503;BME280;29098;48.184;16.298;2023-03-21T07:34:36;99490.34;;;11.66;68.06
43503;BME280;29098;48.184;16.298;2023-03-21T07:37:02;99497.91;;;11.69;68.10
43503;BME280;29098;48.184;16.298;2023-03-21T07:39:28;99504.66;;;11.72;67.81
43503;BME280;29098;48.184;16.298;2023-03-21T07:41:54;99499.38;;;11.72;66.97
43503;BME280;29098;48.184;16.298;2023-03-21T07:44:22;99535.03;;;11.83;67.87
43503;BME280;29098;48.184;16.298;2023-03-21T07:46:48;99503.34;;;11.83;67.33
43503;BME280;29098;48.184;16.298;2023-03-21T07:49:13;99463.41;;;11.71;67.39
43503;BME280;29098;48.184;16.298;2023-03-21T07:51:39;99478.25;;;11.93;66.73
43503;BME280;29098;48.184;16.298;2023-03-21T07:54:05;99510.00;;;12.15;65.98
43503;BME280;29098;48.184;16.298;2023-03-21T07:56:31;99504.47;;;12.10;66.12
43503;BME280;29098;48.184;16.298;2023-03-21T07:58:56;99494.16;;;12.15;66.33
43503;BME280;29098;48.184;16.298;2023-03-21T08:01:23;99496.22;;;12.20;65.71
43503;BME280;29098;48.184;16.298;2023-03-21T08:03:49;99492.09;;;12.32;65.11
43503;BME280;29098;48.184;16.298;2023-03-21T08:06:18;99495.25;;;12.21;64.95
43503;BME280;29098;48.184;16.298;2023-03-21T08:08:44;99494.72;;;12.32;64.93
43503;BME280;29098;48.184;16.298;2023-03-21T08:11:11;99505.16;;;12.41;64.96
43503;BME280;29098;48.184;16.298;2023-03-21T08:13:36;99489.94;;;12.43;64.78
43503;BME280;29098;48.184;16.298;2023-03-21T08:16:02;99501.88;;;12.60;64.42
43503;BME280;29098;48.184;16.298;2023-03-21T08:18:27;99478.25;;;12.87;63.64
43503;BME280;29098;48.184;16.298;2023-03-21T08:20:54;99507.06;;;13.39;62.00
43503;BME280;29098;48.184;16.298;2023-03-21T08:23:20;99495.44;;;13.76;60.60
43503;BME280;29098;48.184;16.298;2023-03-21T08:25:50;99499.34;;;13.93;59.80
43503;BME280;29098;48.184;16.298;2023-03-21T08:28:16;99512.31;;;13.61;61.23
43503;BME280;29098;48.184;16.298;2023-03-21T08:30:42;99504.97;;;13.28;61.80
43503;BME280;29098;48.184;16.298;2023-03-21T08:33:08;99504.53;;;13.53;60.83
43503;BME280;29098;48.184;16.298;2023-03-21T08:35:33;99514.28;;;13.46;60.73
43503;BME280;29098;48.184;16.298;2023-03-21T08:38:01;99483.22;;;13.33;61.40
43503;BME280;29098;48.184;16.298;2023-03-21T08:40:27;99495.72;;;13.46;61.95
43503;BME280;29098;48.184;16.298;2023-03-21T08:42:52;99476.47;;;13.30;61.67
43503;BME280;29098;48.184;16.298;2023-03-21T08:45:18;99516.00;;;13.74;60.86
43503;BME280;29098;48.184;16.298;2023-03-21T08:47:44;99480.28;;;13.56;60.71
43503;BME280;29098;48.184;16.298;2023-03-21T08:50:15;99497.91;;;13.84;59.38
43503;BME280;29098;48.184;16.298;2023-03-21T08:52:41;99478.25;;;13.58;60.22
43503;BME280;29098;48.184;16.298;2023-03-21T08:55:06;99505.81;;;13.77;59.77
43503;BME280;29098;48.184;16.298;2023-03-21T08:57:32;99490.69;;;13.64;60.17
43503;BME280;29098;48.184;16.298;2023-03-21T08:59:58;99519.53;;;13.88;59.50
43503;BME280;29098;48.184;16.298;2023-03-21T09:02:23;99505.19;;;13.68;59.04
43503;BME280;29098;48.184;16.298;2023-03-21T09:04:49;99518.94;;;13.99;58.25
43503;BME280;29098;48.184;16.298;2023-03-21T09:07:17;99492.63;;;13.91;58.39
43503;BME280;29098;48.184;16.298;2023-03-21T09:09:42;99505.22;;;13.82;57.96
43503;BME280;29098;48.184;16.298;2023-03-21T09:12:08;99507.25;;;13.80;57.19
43503;BME280;29098;48.184;16.298;2023-03-21T09:14:34;99479.97;;;13.79;57.56
43503;BME280;29098;48.184;16.298;2023-03-21T09:17:00;99481.97;;;13.77;57.24
43503;BME280;29098;48.184;16.298;2023-03-21T09:19:26;99493.44;;;13.91;57.27
43503;BME280;29098;48.184;16.298;2023-03-21T09:21:53;99493.41;;;13.84;56.77
43503;BME280;29098;48.184;16.298;2023-03-21T09:24:20;99499.34;;;13.93;56.95
43503;BME280;29098;48.184;16.298;2023-03-21T09:26:46;99475.09;;;13.83;56.63
43503;BME280;29098;48.184;16.298;2023-03-21T09:29:15;99498.94;;;13.96;56.98
43503;BME280;29098;48.184;16.298;2023-03-21T09:31:42;99491.06;;;14.23;55.96
43503;BME280;29098;48.184;16.298;2023-03-21T09:34:08;99485.53;;;14.18;55.73
43503;BME280;29098;48.184;16.298;2023-03-21T09:36:34;99484.28;;;14.07;56.41
43503;BME280;29098;48.184;16.298;2023-03-21T09:39:02;99495.53;;;14.16;56.46
43503;BME280;29098;48.184;16.298;2023-03-21T09:47:23;99495.56;;;14.36;55.95
43503;BME280;29098;48.184;16.298;2023-03-21T09:52:59;99475.56;;;14.47;55.39
43503;BME280;29098;48.184;16.298;2023-03-21T09:55:35;99480.88;;;14.54;54.84
43503;BME280;29098;48.184;16.298;2023-03-21T09:58:24;99453.13;;;14.50;55.15
43503;BME280;29098;48.184;16.298;2023-03-21T10:00:53;99480.03;;;14.67;55.93
43503;BME280;29098;48.184;16.298;2023-03-21T10:03:31;99468.63;;;15.00;55.03
43503;BME280;29098;48.184;16.298;2023-03-21T10:06:00;99453.31;;;14.82;53.48
43503;BME280;29098;48.184;16.298;2023-03-21T10:08:33;99454.75;;;14.85;53.37
43503;BME280;29098;48.184;16.298;2023-03-21T10:13:52;99447.78;;;14.97;52.52
43503;BME280;29098;48.184;16.298;2023-03-21T10:16:36;99459.00;;;15.06;52.33
43503;BME280;29098;48.184;16.298;2023-03-21T10:19:17;99431.97;;;15.29;52.26
43503;BME280;29098;48.184;16.298;2023-03-21T10:21:46;99439.75;;;15.70;51.11
43503;BME280;29098;48.184;16.298;2023-03-21T10:24:15;99424.94;;;15.42;50.89
43503;BME280;29098;48.184;16.298;2023-03-21T10:26:42;99413.78;;;15.26;51.39
43503;BME280;29098;48.184;16.298;2023-03-21T10:29:14;99414.69;;;15.00;51.52
43503;BME280;29098;48.184;16.298;2023-03-21T10:31:41;99413.91;;;14.86;52.57
43503;BME280;29098;48.184;16.298;2023-03-21T10:34:17;99433.50;;;14.91;52.33
43503;BME280;29098;48.184;16.298;2023-03-21T10:36:43;99445.75;;;14.99;52.61
43503;BME280;29098;48.184;16.298;2023-03-21T10:39:20;99411.50;;;14.77;52.45
43503;BME280;29098;48.184;16.298;2023-03-21T10:41:46;99428.19;;;14.98;51.06
43503;BME280;29098;48.184;16.298;2023-03-21T10:44:16;99429.06;;;15.38;50.08
43503;BME280;29098;48.184;16.298;2023-03-21T10:46:56;99433.66;;;15.63;48.39
43503;BME280;29098;48.184;16.298;2023-03-21T10:49:22;99424.44;;;15.65;49.06
43503;BME280;29098;48.184;16.298;2023-03-21T10:52:09;99399.69;;;15.65;49.10
43503;BME280;29098;48.184;16.298;2023-03-21T10:54:35;99407.38;;;15.41;48.83
43503;BME280;29098;48.184;16.298;2023-03-21T10:57:27;99422.19;;;15.62;49.55
43503;BME280;29098;48.184;16.298;2023-03-21T10:59:55;99422.72;;;15.39;49.83
43503;BME280;29098;48.184;16.298;2023-03-21T11:02:34;99433.00;;;15.67;50.09
43503;BME280;29098;48.184;16.298;2023-03-21T11:05:07;99429.22;;;15.50;50.10
43503;BME280;29098;48.184;16.298;2023-03-21T11:07:39;99412.56;;;15.68;51.08
43503;BME280;29098;48.184;16.298;2023-03-21T11:10:13;99411.72;;;17.32;47.59
43503;BME280;29098;48.184;16.298;2023-03-21T11:12:40;99400.66;;;18.68;44.98
43503;BME280;29098;48.184;16.298;2023-03-21T11:18:18;99402.19;;;20.60;39.56
43503;BME280;29098;48.184;16.298;2023-03-21T11:21:05;99369.41;;;20.14;39.46
43503;BME280;29098;48.184;16.298;2023-03-21T11:23:34;99385.28;;;20.60;39.04
43503;BME280;29098;48.184;16.298;2023-03-21T11:26:09;99377.69;;;20.51;39.39
43503;BME280;29098;48.184;16.298;2023-03-21T11:28:38;99390.75;;;19.33;40.84
43503;BME280;29098;48.184;16.298;2023-03-21T11:31:06;99373.59;;;18.04;42.83
43503;BME280;29098;48.184;16.298;2023-03-21T11:33:47;99327.41;;;18.64;41.06
43503;BME280;29098;48.184;16.298;2023-03-21T11:38:48;99380.63;;;17.87;42.36
43503;BME280;29098;48.184;16.298;2023-03-21T11:41:32;99382.56;;;18.10;41.25
43503;BME280;29098;48.184;16.298;2023-03-21T11:43:59;99358.63;;;17.49;42.66
43503;BME280;29098;48.184;16.298;2023-03-21T11:46:28;99352.31;;;17.74;42.20
43503;BME280;29098;48.184;16.298;2023-03-21T11:48:54;99366.47;;;18.94;40.89
43503;BME280;29098;48.184;16.298;2023-03-21T11:56:35;99361.94;;;20.55;36.94
43503;BME280;29098;48.184;16.298;2023-03-21T12:13:04;99314.81;;;18.88;38.87
43503;BME280;29098;48.184;16.298;2023-03-21T12:20:39;99315.97;;;20.41;35.52
43503;BME280;29098;48.184;16.298;2023-03-21T12:26:30;99312.97;;;20.99;35.13
43503;BME280;29098;48.184;16.298;2023-03-21T12:34:49;99298.63;;;20.88;35.04
43503;BME280;29098;48.184;16.298;2023-03-21T12:43:47;99285.84;;;23.99;29.35
43503;BME280;29098;48.184;16.298;2023-03-21T12:45:50;99271.56;;;24.09;28.93
43503;BME280;29098;48.184;16.298;2023-03-21T12:48:27;99259.94;;;22.10;31.00
43503;BME280;29098;48.184;16.298;2023-03-21T12:50:55;99300.75;;;21.14;32.97
43503;BME280;29098;48.184;16.298;2023-03-21T12:53:33;99270.31;;;20.75;33.74
43503;BME280;29098;48.184;16.298;2023-03-21T12:56:09;99259.25;;;20.22;34.92
43503;BME280;29098;48.184;16.298;2023-03-21T12:58:47;99223.13;;;19.46;36.38
43503;BME280;29098;48.184;16.298;2023-03-21T13:01:14;99252.00;;;19.14;37.10
43503;BME280;29098;48.184;16.298;2023-03-21T13:03:47;99278.41;;;18.99;37.58
43503;BME280;29098;48.184;16.298;2023-03-21T13:06:17;99267.00;;;18.74;38.05
43503;BME280;29098;48.184;16.298;2023-03-21T13:11:22;99244.22;;;18.43;38.57
43503;BME280;29098;48.184;16.298;2023-03-21T13:17:02;99222.72;;;18.09;39.48
43503;BME280;29098;48.184;16.298;2023-03-21T13:24:46;99233.03;;;17.93;39.13
43503;BME280;29098;48.184;16.298;2023-03-21T13:30:31;99229.09;;;17.72;39.40
43503;BME280;29098;48.184;16.298;2023-03-21T13:33:13;99207.88;;;17.41;39.80
43503;BME280;29098;48.184;16.298;2023-03-21T13:35:42;99252.63;;;17.63;39.69
43503;BME280;29098;48.184;16.298;2023-03-21T13:38:21;99232.44;;;17.67;39.65
43503;BME280;29098;48.184;16.298;2023-03-21T13:40:57;99220.25;;;17.23;40.19
43503;BME280;29098;48.184;16.298;2023-03-21T13:48:57;99229.63;;;17.14;40.54
43503;BME280;29098;48.184;16.298;2023-03-21T13:56:52;99209.25;;;17.44;39.75
43503;BME280;29098;48.184;16.298;2023-03-21T13:59:41;99199.78;;;17.84;39.08
43503;BME280;29098;48.184;16.298;2023-03-21T14:04:53;99216.22;;;17.69;39.40
43503;BME280;29098;48.184;16.298;2023-03-21T14:07:29;99193.84;;;17.58;39.34
43503;BME280;29098;48.184;16.298;2023-03-21T14:10:01;99183.31;;;17.63;39.29
43503;BME280;29098;48.184;16.298;2023-03-21T14:12:36;99193.63;;;17.83;39.35
43503;BME280;29098;48.184;16.298;2023-03-21T14:15:30;99184.72;;;17.53;39.06
43503;BME280;29098;48.184;16.298;2023-03-21T14:17:59;99222.47;;;17.62;39.95
43503;BME280;29098;48.184;16.298;2023-03-21T14:20:30;99201.38;;;17.37;39.95
43503;BME280;29098;48.184;16.298;2023-03-21T14:22:56;99189.91;;;17.36;39.10
43503;BME280;29098;48.184;16.298;2023-03-21T14:25:24;99189.66;;;17.14;39.87
43503;BME280;29098;48.184;16.298;2023-03-21T14:27:54;99210.75;;;17.39;39.72
43503;BME280;29098;48.184;16.298;2023-03-21T14:30:25;99193.84;;;17.34;40.00
43503;BME280;29098;48.184;16.298;2023-03-21T14:33:00;99202.38;;;17.12;40.72
43503;BME280;29098;48.184;16.298;2023-03-21T14:35:29;99180.53;;;16.91;41.38
43503;BME280;29098;48.184;16.298;2023-03-21T14:37:59;99181.19;;;16.87;41.41
43503;BME280;29098;48.184;16.298;2023-03-21T14:40:27;99185.69;;;17.05;41.92
43503;BME280;29098;48.184;16.298;2023-03-21T14:42:53;99199.47;;;17.02;42.07
43503;BME280;29098;48.184;16.298;2023-03-21T14:45:23;99163.72;;;16.79;42.12
43503;BME280;29098;48.184;16.298;2023-03-21T14:48:09;99159.78;;;16.51;42.88
43503;BME280;29098;48.184;16.298;2023-03-21T14:50:53;99163.63;;;16.55;43.14
43503;BME280;29098;48.184;16.298;2023-03-21T14:53:31;99168.69;;;16.45;44.15
43503;BME280;29098;48.184;16.298;2023-03-21T14:56:05;99188.78;;;16.40;43.80
43503;BME280;29098;48.184;16.298;2023-03-21T14:58:32;99194.22;;;16.64;43.68
43503;BME280;29098;48.184;16.298;2023-03-21T15:01:04;99183.97;;;16.80;43.32
43503;BME280;29098;48.184;16.298;2023-03-21T15:03:30;99189.69;;;16.34;44.23